sensor_id;sensor_type;location;lat;lon;timestamp;temperature;humidity
60287;DHT22;46141;52.382;5.270;2023-04-01T00:00:56;21.10;69.40
60287;DHT22;46141;52.382;5.270;2023-04-01T00:03:24;21.10;69.30
60287;DHT22;46141;52.382;5.270;2023-04-01T00:05:50;21.10;69.30
60287;DHT22;46141;52.382;5.270;2023-04-01T00:08:16;21.10;69.30
60287;DHT22;46141;52.382;5.270;2023-04-01T00:10:43;21.10;69.40
60287;DHT22;46141;52.382;5.270;2023-04-01T00:13:08;21.10;69.40
60287;DHT22;46141;52.382;5.270;2023-04-01T00:15:34;21.10;69.40
60287;DHT22;46141;52.382;5.270;2023-04-01T00:18:00;21.10;69.20
60287;DHT22;46141;52.382;5.270;2023-04-01T00:20:27;21.10;69.30
60287;DHT22;46141;52.382;5.270;2023-04-01T00:22:53;21.10;69.30
60287;DHT22;46141;52.382;5.270;2023-04-01T00:25:18;21.10;69.40
60287;DHT22;46141;52.382;5.270;2023-04-01T00:27:44;21.10;69.20
60287;DHT22;46141;52.382;5.270;2023-04-01T00:30:10;21.10;69.40
60287;DHT22;46141;52.382;5.270;2023-04-01T00:32:36;21.10;69.30
60287;DHT22;46141;52.382;5.270;2023-04-01T00:35:03;21.10;69.30
60287;DHT22;46141;52.382;5.270;2023-04-01T00:37:28;21.10;69.30
60287;DHT22;46141;52.382;5.270;2023-04-01T00:39:55;21.10;69.30
60287;DHT22;46141;52.382;5.270;2023-04-01T00:42:20;21.10;69.20
60287;DHT22;46141;52.382;5.270;2023-04-01T00:44:54;21.10;69.10
60287;DHT22;46141;52.382;5.270;2023-04-01T00:47:21;21.10;69.20
60287;DHT22;46141;52.382;5.270;2023-04-01T00:49:51;21.10;69.30
60287;DHT22;46141;52.382;5.270;2023-04-01T00:52:21;21.10;69.20
60287;DHT22;46141;52.382;5.270;2023-04-01T00:54:52;21.10;69.80
60287;DHT22;46141;52.382;5.270;2023-04-01T00:57:28;21.10;69.20
60287;DHT22;46141;52.382;5.270;2023-04-01T00:59:56;21.10;69.20
60287;DHT22;46141;52.382;5.270;2023-04-01T01:02:21;21.10;69.20
60287;DHT22;46141;52.382;5.270;2023-04-01T01:04:47;21.10;69.20
60287;DHT22;46141;52.382;5.270;2023-04-01T01:37:18;21.10;69.10
60287;DHT22;46141;52.382;5.270;2023-04-01T01:39:52;21.10;69.00
60287;DHT22;46141;52.382;5.270;2023-04-01T01:42:21;21.10;69.00
60287;DHT22;46141;52.382;5.270;2023-04-01T01:44:51;21.10;69.00
60287;DHT22;46141;52.382;5.270;2023-04-01T01:47:19;21.10;69.00
60287;DHT22;46141;52.382;5.270;2023-04-01T01:49:48;21.10;69.10
60287;DHT22;46141;52.382;5.270;2023-04-01T01:52:17;21.10;69.00
60287;DHT22;46141;52.382;5.270;2023-04-01T01:54:54;21.10;68.90
60287;DHT22;46141;52.382;5.270;2023-04-01T01:57:31;21.10;68.90
60287;DHT22;46141;52.382;5.270;2023-04-01T02:00:09;21.10;68.90
60287;DHT22;46141;52.382;5.270;2023-04-01T02:02:44;21.10;68.30
60287;DHT22;46141;52.382;5.270;2023-04-01T02:05:19;21.10;68.80
60287;DHT22;46141;52.382;5.270;2023-04-01T02:08:14;21.10;68.80
60287;DHT22;46141;52.382;5.270;2023-04-01T02:10:49;21.10;69.40
60287;DHT22;46141;52.382;5.270;2023-04-01T02:13:27;21.10;68.70
60287;DHT22;46141;52.382;5.270;2023-04-01T02:16:00;21.10;69.30
60287;DHT22;46141;52.382;5.270;2023-04-01T02:18:28;21.10;68.60
60287;DHT22;46141;52.382;5.270;2023-04-01T02:20:58;21.10;68.50
60287;DHT22;46141;52.382;5.270;2023-04-01T02:23:26;21.10;68.50
60287;DHT22;46141;52.382;5.270;2023-04-01T02:25:53;21.10;68.50
60287;DHT22;46141;52.382;5.270;2023-04-01T02:28:20;21.10;68.50
60287;DHT22;46141;52.382;5.270;2023-04-01T02:30:50;21.10;68.50
60287;DHT22;46141;52.382;5.270;2023-04-01T02:33:17;21.10;68.40
60287;DHT22;46141;52.382;5.270;2023-04-01T02:35:44;21.10;68.40
60287;DHT22;46141;52.382;5.270;2023-04-01T02:38:10;21.20;68.40
60287;DHT22;46141;52.382;5.270;2023-04-01T02:40:47;21.10;68.20
60287;DHT22;46141;52.382;5.270;2023-04-01T02:43:13;21.20;68.20
60287;DHT22;46141;52.382;5.270;2023-04-01T02:45:39;21.20;68.20
60287;DHT22;46141;52.382;5.270;2023-04-01T02:48:04;21.10;68.20
60287;DHT22;46141;52.382;5.270;2023-04-01T02:50:30;21.20;68.20
60287;DHT22;46141;52.382;5.270;2023-04-01T02:52:56;21.10;68.10
60287;DHT22;46141;52.382;5.270;2023-04-01T02:55:22;21.20;68.10
60287;DHT22;46141;52.382;5.270;2023-04-01T02:57:47;21.10;68.00
60287;DHT22;46141;52.382;5.270;2023-04-01T03:00:13;21.20;68.10
60287;DHT22;46141;52.382;5.270;2023-04-01T03:02:39;21.10;68.00
60287;DHT22;46141;52.382;5.270;2023-04-01T03:05:05;21.10;68.10
60287;DHT22;46141;52.382;5.270;2023-04-01T03:07:31;21.10;68.00
60287;DHT22;46141;52.382;5.270;2023-04-01T03:09:57;21.20;68.00
60287;DHT22;46141;52.382;5.270;2023-04-01T03:12:23;21.20;68.00
60287;DHT22;46141;52.382;5.270;2023-04-01T03:14:48;21.20;68.00
60287;DHT22;46141;52.382;5.270;2023-04-01T03:17:14;21.20;67.90
60287;DHT22;46141;52.382;5.270;2023-04-01T03:19:40;21.20;68.00
60287;DHT22;46141;52.382;5.270;2023-04-01T03:22:06;21.10;68.00
60287;DHT22;46141;52.382;5.270;2023-04-01T03:24:31;21.10;68.00
60287;DHT22;46141;52.382;5.270;2023-04-01T03:26:57;21.10;67.90
60287;DHT22;46141;52.382;5.270;2023-04-01T03:29:22;21.10;67.90
60287;DHT22;46141;52.382;5.270;2023-04-01T03:31:48;21.20;67.80
60287;DHT22;46141;52.382;5.270;2023-04-01T03:34:14;21.10;67.80
60287;DHT22;46141;52.382;5.270;2023-04-01T03:36:39;21.10;67.80
60287;DHT22;46141;52.382;5.270;2023-04-01T03:39:05;21.10;67.80
60287;DHT22;46141;52.382;5.270;2023-04-01T03:41:32;21.10;67.80
60287;DHT22;46141;52.382;5.270;2023-04-01T03:43:58;21.10;67.80
60287;DHT22;46141;52.382;5.270;2023-04-01T03:46:23;21.10;67.80
60287;DHT22;46141;52.382;5.270;2023-04-01T03:48:49;21.10;67.80
60287;DHT22;46141;52.382;5.270;2023-04-01T03:51:15;21.10;67.70
60287;DHT22;46141;52.382;5.270;2023-04-01T03:53:40;21.10;67.70
60287;DHT22;46141;52.382;5.270;2023-04-01T03:56:07;21.10;67.70
60287;DHT22;46141;52.382;5.270;2023-04-01T03:58:33;21.10;67.60
60287;DHT22;46141;52.382;5.270;2023-04-01T04:00:58;21.20;67.70
60287;DHT22;46141;52.382;5.270;2023-04-01T04:03:24;21.10;67.60
60287;DHT22;46141;52.382;5.270;2023-04-01T04:05:50;21.10;67.60
60287;DHT22;46141;52.382;5.270;2023-04-01T04:08:16;21.10;67.60
60287;DHT22;46141;52.382;5.270;2023-04-01T04:10:42;21.20;67.60
60287;DHT22;46141;52.382;5.270;2023-04-01T04:13:09;21.20;67.70
60287;DHT22;46141;52.382;5.270;2023-04-01T04:15:34;21.10;67.60
60287;DHT22;46141;52.382;5.270;2023-04-01T04:18:00;21.10;67.60
60287;DHT22;46141;52.382;5.270;2023-04-01T04:20:26;21.10;67.60
60287;DHT22;46141;52.382;5.270;2023-04-01T04:22:51;21.10;67.60
60287;DHT22;46141;52.382;5.270;2023-04-01T04:25:17;21.10;67.60
60287;DHT22;46141;52.382;5.270;2023-04-01T04:27:42;21.10;67.60
60287;DHT22;46141;52.382;5.270;2023-04-01T04:30:09;21.10;67.50
60287;DHT22;46141;52.382;5.270;2023-04-01T04:32:35;21.10;67.40
60287;DHT22;46141;52.382;5.270;2023-04-01T04:35:01;21.10;67.50
60287;DHT22;46141;52.382;5.270;2023-04-01T04:37:26;21.10;67.50
60287;DHT22;46141;52.382;5.270;2023-04-01T04:39:52;21.10;67.50
60287;DHT22;46141;52.382;5.270;2023-04-01T04:42:18;21.10;67.30
60287;DHT22;46141;52.382;5.270;2023-04-01T04:44:43;21.10;67.40
60287;DHT22;46141;52.382;5.270;2023-04-01T04:47:09;21.10;67.40
60287;DHT22;46141;52.382;5.270;2023-04-01T04:49:34;21.10;67.40
60287;DHT22;46141;52.382;5.270;2023-04-01T04:52:00;21.10;67.40
60287;DHT22;46141;52.382;5.270;2023-04-01T04:54:26;21.10;67.40
60287;DHT22;46141;52.382;5.270;2023-04-01T04:56:52;21.10;67.50
60287;DHT22;46141;52.382;5.270;2023-04-01T04:59:18;21.10;67.50
60287;DHT22;46141;52.382;5.270;2023-04-01T05:01:44;21.10;67.40
60287;DHT22;46141;52.382;5.270;2023-04-01T05:04:09;21.10;67.40
60287;DHT22;46141;52.382;5.270;2023-04-01T05:06:35;21.10;67.50
60287;DHT22;46141;52.382;5.270;2023-04-01T05:09:01;21.10;67.30
60287;DHT22;46141;52.382;5.270;2023-04-01T05:11:26;21.10;67.30
60287;DHT22;46141;52.382;5.270;2023-04-01T05:13:53;21.10;67.30
60287;DHT22;46141;52.382;5.270;2023-04-01T05:16:19;21.10;67.40
60287;DHT22;46141;52.382;5.270;2023-04-01T05:18:47;21.10;67.40
60287;DHT22;46141;52.382;5.270;2023-04-01T05:21:14;21.10;67.40
60287;DHT22;46141;52.382;5.270;2023-04-01T05:23:41;21.10;67.30
60287;DHT22;46141;52.382;5.270;2023-04-01T05:26:12;21.10;67.40
60287;DHT22;46141;52.382;5.270;2023-04-01T05:28:39;21.10;67.30
60287;DHT22;46141;52.382;5.270;2023-04-01T05:31:06;21.10;67.30
60287;DHT22;46141;52.382;5.270;2023-04-01T05:33:32;21.10;67.10
60287;DHT22;46141;52.382;5.270;2023-04-01T05:36:06;21.10;67.20
60287;DHT22;46141;52.382;5.270;2023-04-01T05:38:32;21.10;67.00
60287;DHT22;46141;52.382;5.270;2023-04-01T05:41:02;21.10;67.00
60287;DHT22;46141;52.382;5.270;2023-04-01T05:43:28;21.10;67.00
60287;DHT22;46141;52.382;5.270;2023-04-01T05:45:55;21.00;66.50
60287;DHT22;46141;52.382;5.270;2023-04-01T05:48:21;21.00;67.00
60287;DHT22;46141;52.382;5.270;2023-04-01T05:50:46;21.00;67.10
60287;DHT22;46141;52.382;5.270;2023-04-01T05:53:12;21.00;67.10
60287;DHT22;46141;52.382;5.270;2023-04-01T05:55:38;21.00;67.20
60287;DHT22;46141;52.382;5.270;2023-04-01T05:58:03;21.00;67.40
60287;DHT22;46141;52.382;5.270;2023-04-01T06:00:29;21.00;67.40
60287;DHT22;46141;52.382;5.270;2023-04-01T06:02:58;21.00;67.50
60287;DHT22;46141;52.382;5.270;2023-04-01T06:05:28;21.00;67.60
60287;DHT22;46141;52.382;5.270;2023-04-01T06:08:00;21.00;67.60
60287;DHT22;46141;52.382;5.270;2023-04-01T06:16:13;21.00;67.60
60287;DHT22;46141;52.382;5.270;2023-04-01T06:19:09;21.00;67.50
60287;DHT22;46141;52.382;5.270;2023-04-01T06:32:56;21.10;67.30
60287;DHT22;46141;52.382;5.270;2023-04-01T06:46:44;21.00;67.10
60287;DHT22;46141;52.382;5.270;2023-04-01T06:54:12;21.10;67.30
60287;DHT22;46141;52.382;5.270;2023-04-01T06:56:44;21.10;67.30
60287;DHT22;46141;52.382;5.270;2023-04-01T06:59:22;21.10;67.30
60287;DHT22;46141;52.382;5.270;2023-04-01T07:01:58;21.10;67.00
60287;DHT22;46141;52.382;5.270;2023-04-01T07:04:33;21.10;67.40
60287;DHT22;46141;52.382;5.270;2023-04-01T07:07:19;21.10;67.50
60287;DHT22;46141;52.382;5.270;2023-04-01T07:09:53;21.10;67.70
60287;DHT22;46141;52.382;5.270;2023-04-01T07:15:15;21.10;66.90
60287;DHT22;46141;52.382;5.270;2023-04-01T07:17:45;21.10;67.00
60287;DHT22;46141;52.382;5.270;2023-04-01T07:22:51;21.10;67.10
60287;DHT22;46141;52.382;5.270;2023-04-01T07:25:19;21.10;66.70
60287;DHT22;46141;52.382;5.270;2023-04-01T07:27:47;21.10;66.60
60287;DHT22;46141;52.382;5.270;2023-04-01T07:30:22;21.10;66.90
60287;DHT22;46141;52.382;5.270;2023-04-01T07:41:22;21.10;67.70
60287;DHT22;46141;52.382;5.270;2023-04-01T07:44:28;21.10;67.70
60287;DHT22;46141;52.382;5.270;2023-04-01T07:58:05;21.10;67.90
60287;DHT22;46141;52.382;5.270;2023-04-01T08:01:02;21.10;68.00
60287;DHT22;46141;52.382;5.270;2023-04-01T08:03:57;21.10;68.00
60287;DHT22;46141;52.382;5.270;2023-04-01T08:06:32;21.10;67.90
60287;DHT22;46141;52.382;5.270;2023-04-01T08:09:14;21.10;67.90
60287;DHT22;46141;52.382;5.270;2023-04-01T08:11:57;21.10;67.90
60287;DHT22;46141;52.382;5.270;2023-04-01T08:20:40;21.10;67.80
60287;DHT22;46141;52.382;5.270;2023-04-01T08:23:12;21.20;67.90
60287;DHT22;46141;52.382;5.270;2023-04-01T08:33:25;21.20;67.60
60287;DHT22;46141;52.382;5.270;2023-04-01T08:38:39;21.10;67.90
60287;DHT22;46141;52.382;5.270;2023-04-01T08:49:05;21.20;68.00
60287;DHT22;46141;52.382;5.270;2023-04-01T08:55:03;21.20;68.00
60287;DHT22;46141;52.382;5.270;2023-04-01T09:17:57;21.10;68.50
60287;DHT22;46141;52.382;5.270;2023-04-01T09:29:43;21.10;68.60
60287;DHT22;46141;52.382;5.270;2023-04-01T09:41:17;21.20;68.80
60287;DHT22;46141;52.382;5.270;2023-04-01T09:53:11;21.20;68.70
60287;DHT22;46141;52.382;5.270;2023-04-01T09:58:33;21.20;68.70
60287;DHT22;46141;52.382;5.270;2023-04-01T10:24:16;21.20;68.30
60287;DHT22;46141;52.382;5.270;2023-04-01T10:32:36;21.20;68.40
60287;DHT22;46141;52.382;5.270;2023-04-01T10:35:28;21.20;68.60
60287;DHT22;46141;52.382;5.270;2023-04-01T10:55:48;21.20;68.90
60287;DHT22;46141;52.382;5.270;2023-04-01T11:01:27;21.20;68.80
60287;DHT22;46141;52.382;5.270;2023-04-01T11:09:43;21.20;68.70
60287;DHT22;46141;52.382;5.270;2023-04-01T11:15:42;21.20;68.90
60287;DHT22;46141;52.382;5.270;2023-04-01T11:32:50;21.30;69.00
60287;DHT22;46141;52.382;5.270;2023-04-01T11:38:15;21.20;69.40
60287;DHT22;46141;52.382;5.270;2023-04-01T11:43:37;21.30;69.10
60287;DHT22;46141;52.382;5.270;2023-04-01T12:00:30;21.40;69.20
60287;DHT22;46141;52.382;5.270;2023-04-01T12:14:14;21.30;69.50
60287;DHT22;46141;52.382;5.270;2023-04-01T12:17:09;21.30;69.60
60287;DHT22;46141;52.382;5.270;2023-04-01T12:31:01;21.30;69.60
60287;DHT22;46141;52.382;5.270;2023-04-01T12:33:45;21.30;69.80
60287;DHT22;46141;52.382;5.270;2023-04-01T12:41:52;21.20;70.60
60287;DHT22;46141;52.382;5.270;2023-04-01T12:44:55;21.20;70.10
60287;DHT22;46141;52.382;5.270;2023-04-01T12:55:47;21.30;69.90
60287;DHT22;46141;52.382;5.270;2023-04-01T13:01:36;21.40;69.80
60287;DHT22;46141;52.382;5.270;2023-04-01T13:07:29;21.40;69.60
60287;DHT22;46141;52.382;5.270;2023-04-01T13:13:38;21.40;69.50
60287;DHT22;46141;52.382;5.270;2023-04-01T13:16:29;21.40;69.50
60287;DHT22;46141;52.382;5.270;2023-04-01T13:19:21;21.40;69.50
60287;DHT22;46141;52.382;5.270;2023-04-01T13:22:11;21.40;69.40
60287;DHT22;46141;52.382;5.270;2023-04-01T13:25:21;21.40;70.10
60287;DHT22;46141;52.382;5.270;2023-04-01T13:27:58;21.40;69.40
60287;DHT22;46141;52.382;5.270;2023-04-01T13:30:26;21.40;69.50
60287;DHT22;46141;52.382;5.270;2023-04-01T13:35:52;21.40;69.60
60287;DHT22;46141;52.382;5.270;2023-04-01T13:44:05;21.40;70.10
60287;DHT22;46141;52.382;5.270;2023-04-01T13:58:33;21.30;70.50
60287;DHT22;46141;52.382;5.270;2023-04-01T14:01:09;21.20;70.50
60287;DHT22;46141;52.382;5.270;2023-04-01T14:03:44;21.20;70.80
60287;DHT22;46141;52.382;5.270;2023-04-01T14:11:56;21.20;71.10
60287;DHT22;46141;52.382;5.270;2023-04-01T14:20:45;21.20;71.20
60287;DHT22;46141;52.382;5.270;2023-04-01T14:34:41;21.20;71.40
60287;DHT22;46141;52.382;5.270;2023-04-01T14:43:14;21.30;71.30
60287;DHT22;46141;52.382;5.270;2023-04-01T14:51:28;21.30;71.70
60287;DHT22;46141;52.382;5.270;2023-04-01T14:54:17;21.30;71.70
60287;DHT22;46141;52.382;5.270;2023-04-01T14:59:29;21.30;71.90
60287;DHT22;46141;52.382;5.270;2023-04-01T15:04:55;21.30;71.70
60287;DHT22;46141;52.382;5.270;2023-04-01T15:07:50;21.20;71.60
60287;DHT22;46141;52.382;5.270;2023-04-01T15:24:52;21.30;71.40
60287;DHT22;46141;52.382;5.270;2023-04-01T15:41:22;21.30;71.10
60287;DHT22;46141;52.382;5.270;2023-04-01T15:43:50;21.30;71.20
60287;DHT22;46141;52.382;5.270;2023-04-01T15:49:11;21.30;71.00
60287;DHT22;46141;52.382;5.270;2023-04-01T16:22:05;21.20;72.30
60287;DHT22;46141;52.382;5.270;2023-04-01T16:24:48;21.20;72.30
60287;DHT22;46141;52.382;5.270;2023-04-01T16:27:41;21.20;73.00
60287;DHT22;46141;52.382;5.270;2023-04-01T16:30:38;21.20;72.30
60287;DHT22;46141;52.382;5.270;2023-04-01T16:35:58;21.20;72.30
60287;DHT22;46141;52.382;5.270;2023-04-01T16:41:38;21.20;72.30
60287;DHT22;46141;52.382;5.270;2023-04-01T16:44:22;21.20;72.50
60287;DHT22;46141;52.382;5.270;2023-04-01T16:47:08;21.20;72.30
60287;DHT22;46141;52.382;5.270;2023-04-01T16:55:51;21.20;72.10
60287;DHT22;46141;52.382;5.270;2023-04-01T17:01:27;21.20;72.20
60287;DHT22;46141;52.382;5.270;2023-04-01T17:04:04;21.20;72.00
60287;DHT22;46141;52.382;5.270;2023-04-01T17:06:49;21.20;71.80
60287;DHT22;46141;52.382;5.270;2023-04-01T17:12:52;21.20;72.00
60287;DHT22;46141;52.382;5.270;2023-04-01T17:15:47;21.20;71.90
60287;DHT22;46141;52.382;5.270;2023-04-01T17:18:45;21.20;72.00
60287;DHT22;46141;52.382;5.270;2023-04-01T17:27:33;21.20;72.10
60287;DHT22;46141;52.382;5.270;2023-04-01T17:33:25;21.10;71.90
60287;DHT22;46141;52.382;5.270;2023-04-01T17:36:19;21.10;71.90
60287;DHT22;46141;52.382;5.270;2023-04-01T17:41:45;21.10;71.90
60287;DHT22;46141;52.382;5.270;2023-04-01T17:49:41;21.10;71.70
60287;DHT22;46141;52.382;5.270;2023-04-01T17:54:59;21.10;71.60
60287;DHT22;46141;52.382;5.270;2023-04-01T17:57:52;21.10;71.60
60287;DHT22;46141;52.382;5.270;2023-04-01T18:09:06;21.00;71.50
60287;DHT22;46141;52.382;5.270;2023-04-01T18:14:41;21.00;71.40
60287;DHT22;46141;52.382;5.270;2023-04-01T18:17:18;21.10;71.30
60287;DHT22;46141;52.382;5.270;2023-04-01T18:22:41;21.00;71.10
60287;DHT22;46141;52.382;5.270;2023-04-01T18:30:36;21.00;71.10
60287;DHT22;46141;52.382;5.270;2023-04-01T18:36:13;21.10;71.10
60287;DHT22;46141;52.382;5.270;2023-04-01T18:38:53;21.00;71.00
60287;DHT22;46141;52.382;5.270;2023-04-01T18:41:34;21.00;71.00
60287;DHT22;46141;52.382;5.270;2023-04-01T18:47:13;21.00;70.90
60287;DHT22;46141;52.382;5.270;2023-04-01T18:49:52;21.00;70.80
60287;DHT22;46141;52.382;5.270;2023-04-01T18:52:24;21.00;70.80
60287;DHT22;46141;52.382;5.270;2023-04-01T18:57:52;21.00;70.70
60287;DHT22;46141;52.382;5.270;2023-04-01T19:00:32;21.00;70.60
60287;DHT22;46141;52.382;5.270;2023-04-01T19:03:24;21.00;70.70
60287;DHT22;46141;52.382;5.270;2023-04-01T19:05:54;21.00;70.70
60287;DHT22;46141;52.382;5.270;2023-04-01T19:08:30;21.00;70.60
60287;DHT22;46141;52.382;5.270;2023-04-01T19:11:30;21.00;70.70
60287;DHT22;46141;52.382;5.270;2023-04-01T19:22:57;21.00;70.50
60287;DHT22;46141;52.382;5.270;2023-04-01T19:30:54;21.00;70.10
60287;DHT22;46141;52.382;5.270;2023-04-01T19:33:59;21.00;69.50
60287;DHT22;46141;52.382;5.270;2023-04-01T19:42:24;21.00;70.00
60287;DHT22;46141;52.382;5.270;2023-04-01T19:52:46;20.90;70.90
60287;DHT22;46141;52.382;5.270;2023-04-01T19:58:11;20.90;71.00
60287;DHT22;46141;52.382;5.270;2023-04-01T20:00:51;20.90;71.30
60287;DHT22;46141;52.382;5.270;2023-04-01T20:22:08;20.90;71.10
60287;DHT22;46141;52.382;5.270;2023-04-01T20:24:46;20.90;70.60
60287;DHT22;46141;52.382;5.270;2023-04-01T20:35:34;21.00;69.70
60287;DHT22;46141;52.382;5.270;2023-04-01T20:44:04;20.90;70.20
60287;DHT22;46141;52.382;5.270;2023-04-01T20:49:38;20.90;70.30
60287;DHT22;46141;52.382;5.270;2023-04-01T21:02:59;21.00;70.20
60287;DHT22;46141;52.382;5.270;2023-04-01T21:05:51;21.00;70.30
60287;DHT22;46141;52.382;5.270;2023-04-01T21:17:22;20.90;70.10
60287;DHT22;46141;52.382;5.270;2023-04-01T21:25:39;21.00;70.00
60287;DHT22;46141;52.382;5.270;2023-04-01T21:33:44;21.00;69.90
60287;DHT22;46141;52.382;5.270;2023-04-01T21:39:05;21.00;69.90
60287;DHT22;46141;52.382;5.270;2023-04-01T22:04:02;21.00;69.30
60287;DHT22;46141;52.382;5.270;2023-04-01T22:06:38;21.00;69.30
60287;DHT22;46141;52.382;5.270;2023-04-01T22:09:25;21.00;69.10
60287;DHT22;46141;52.382;5.270;2023-04-01T22:17:45;21.00;69.00
60287;DHT22;46141;52.382;5.270;2023-04-01T22:28:07;21.00;68.80
60287;DHT22;46141;52.382;5.270;2023-04-01T22:31:01;21.00;68.80
60287;DHT22;46141;52.382;5.270;2023-04-01T22:33:48;21.00;68.70
60287;DHT22;46141;52.382;5.270;2023-04-01T22:52:40;21.00;68.40
60287;DHT22;46141;52.382;5.270;2023-04-01T22:55:14;21.00;68.40
60287;DHT22;46141;52.382;5.270;2023-04-01T22:57:51;21.00;68.30
60287;DHT22;46141;52.382;5.270;2023-04-01T23:00:30;21.00;68.30
60287;DHT22;46141;52.382;5.270;2023-04-01T23:05:31;21.00;68.30
60287;DHT22;46141;52.382;5.270;2023-04-01T23:10:44;21.00;68.20
60287;DHT22;46141;52.382;5.270;2023-04-01T23:13:26;21.00;68.10
60287;DHT22;46141;52.382;5.270;2023-04-01T23:15:54;21.00;68.10
60287;DHT22;46141;52.382;5.270;2023-04-01T23:28:57;21.00;67.80
60287;DHT22;46141;52.382;5.270;2023-04-01T23:34:01;21.00;67.80
60287;DHT22;46141;52.382;5.270;2023-04-01T23:36:30;21.00;67.90
60287;DHT22;46141;52.382;5.270;2023-04-01T23:38:59;21.00;67.90
60287;DHT22;46141;52.382;5.270;2023-04-01T23:41:30;21.00;67.90
60287;DHT22;46141;52.382;5.270;2023-04-01T23:46:26;21.00;67.70
60287;DHT22;46141;52.382;5.270;2023-04-01T23:48:54;21.00;67.70
60287;DHT22;46141;52.382;5.270;2023-04-01T23:51:25;21.00;67.70
60287;DHT22;46141;52.382;5.270;2023-04-01T23:54:13;21.00;67.70
60287;DHT22;46141;52.382;5.270;2023-04-01T23:56:46;21.00;67.60
